createdAt,value
2022-09-05T00:00:05.997Z,62.30
2022-09-05T00:02:49.151Z,62.68
2022-09-05T00:05:46.469Z,62.81
2022-09-05T00:08:39.678Z,62.29
2022-09-05T00:11:42.873Z,62.85
2022-09-05T00:14:34.398Z,63.61
2022-09-05T00:18:42.482Z,63.12
2022-09-05T00:24:20.827Z,64.34
2022-09-05T00:24:35.150Z,63.66
2022-09-05T00:26:51.108Z,63.84
2022-09-05T00:30:25.554Z,63.83
2022-09-05T00:32:28.976Z,64.34
2022-09-05T00:35:19.865Z,64.77
2022-09-05T00:37:53.511Z,65.81
2022-09-05T00:40:29.142Z,66.43
2022-09-05T00:43:05.615Z,66.04
2022-09-05T00:45:40.002Z,66.66
2022-09-05T00:48:25.393Z,66.76
2022-09-05T00:51:02.901Z,66.34
2022-09-05T00:53:43.663Z,65.62
2022-09-05T00:56:16.273Z,65.37
2022-09-05T00:59:07.797Z,65.72
2022-09-05T01:01:51.091Z,65.46
2022-09-05T01:04:36.188Z,64.99
2022-09-05T01:07:29.079Z,64.24
2022-09-05T01:10:04.287Z,63.99
2022-09-05T01:12:52.558Z,64.14
2022-09-05T01:15:32.952Z,63.79
2022-09-05T01:18:12.427Z,63.71
2022-09-05T01:21:10.486Z,63.91
2022-09-05T01:24:07.329Z,64.36
2022-09-05T01:27:00.318Z,64.24
2022-09-05T01:29:41.799Z,64.44
2022-09-05T01:32:18.619Z,64.10
2022-09-05T01:35:00.753Z,64.24
2022-09-05T01:37:33.419Z,64.79
2022-09-05T01:40:15.813Z,65.57
2022-09-05T01:42:55.995Z,65.72
2022-09-05T01:45:47.026Z,66.75
2022-09-05T01:49:00.765Z,66.90
2022-09-05T01:52:21.216Z,67.15
2022-09-05T01:55:19.714Z,67.71
2022-09-05T01:58:05.011Z,67.97
2022-09-05T02:00:40.839Z,67.54
2022-09-05T02:03:14.607Z,67.38
2022-09-05T02:05:53.850Z,66.94
2022-09-05T02:08:44.504Z,66.48
2022-09-05T02:11:12.704Z,67.04
2022-09-05T02:13:53.462Z,67.22
2022-09-05T02:16:23.155Z,67.03
2022-09-05T02:18:49.701Z,67.55
2022-09-05T02:21:55.987Z,67.46
2022-09-05T02:24:33.007Z,66.94
2022-09-05T02:27:02.782Z,66.87
2022-09-05T02:29:42.839Z,67.62
2022-09-05T02:32:18.258Z,69.03
2022-09-05T02:35:03.163Z,69.66
2022-09-05T02:38:51.107Z,68.78
2022-09-05T02:45:08.055Z,67.93
2022-09-05T02:45:10.438Z,68.44
2022-09-05T02:46:48.246Z,68.23
2022-09-05T02:50:12.840Z,68.06
2022-09-05T02:57:24.566Z,69.29
2022-09-05T02:58:05.649Z,70.54
2022-09-05T02:58:23.524Z,70.37
2022-09-05T03:01:09.857Z,70.26
2022-09-05T03:03:49.250Z,70.12
2022-09-05T03:06:34.572Z,69.46
2022-09-05T03:09:17.168Z,69.39
2022-09-05T03:12:28.559Z,70.08
2022-09-05T03:15:01.775Z,70.28
2022-09-05T03:17:52.525Z,70.79
2022-09-05T03:20:55.561Z,71.66
2022-09-05T03:24:03.892Z,71.97
2022-09-05T03:26:59.357Z,71.50
2022-09-05T03:29:48.874Z,71.00
2022-09-05T03:33:02.178Z,70.30
2022-09-05T03:35:50.152Z,69.79
2022-09-05T03:38:54.532Z,69.22
2022-09-05T03:41:40.573Z,68.57
2022-09-05T03:44:28.786Z,68.37
2022-09-05T03:47:11.002Z,68.85
2022-09-05T03:55:20.225Z,68.96
2022-09-05T03:57:14.288Z,69.23
2022-09-05T03:57:17.338Z,68.45
2022-09-05T03:59:44.888Z,69.31
2022-09-05T04:05:48.323Z,69.19
2022-09-05T04:08:13.435Z,69.68
2022-09-05T04:08:31.608Z,70.04
2022-09-05T04:10:58.462Z,69.55
2022-09-05T04:13:40.090Z,69.48
2022-09-05T04:16:18.279Z,69.42
2022-09-05T04:18:56.311Z,69.42
2022-09-05T04:21:36.756Z,70.04
2022-09-05T04:24:05.659Z,71.22
2022-09-05T04:26:50.072Z,72.31
2022-09-05T04:29:44.625Z,72.41
2022-09-05T04:32:29.608Z,73.43
2022-09-05T04:35:02.592Z,73.42
2022-09-05T04:38:04.978Z,73.95
2022-09-05T04:40:37.735Z,73.62
2022-09-05T04:43:28.287Z,73.32
2022-09-05T04:46:18.832Z,73.03
2022-09-05T04:49:04.717Z,72.43
2022-09-05T04:51:59.939Z,71.01
2022-09-05T04:54:48.443Z,71.26
2022-09-05T04:57:34.928Z,71.05
2022-09-05T05:05:43.681Z,72.45
2022-09-05T05:06:11.039Z,73.08
2022-09-05T05:06:17.108Z,73.10
2022-09-05T05:08:47.616Z,73.70
2022-09-05T05:17:18.012Z,72.78
2022-09-05T05:18:03.730Z,72.39
2022-09-05T05:18:07.040Z,72.68
2022-09-05T05:20:41.718Z,73.54
2022-09-05T05:23:17.059Z,74.09
2022-09-05T05:25:54.151Z,73.73
2022-09-05T05:28:28.041Z,73.77
2022-09-05T05:31:07.855Z,73.83
2022-09-05T05:33:39.675Z,73.40
2022-09-05T05:36:17.790Z,73.15
2022-09-05T05:38:54.877Z,72.83
2022-09-05T05:41:36.683Z,72.62
2022-09-05T05:44:15.410Z,72.77
2022-09-05T05:46:47.351Z,72.61
2022-09-05T05:49:39.096Z,73.14
2022-09-05T05:52:39.849Z,71.61
2022-09-05T05:55:50.669Z,71.81
2022-09-05T05:58:43.964Z,71.27
2022-09-05T06:01:31.666Z,71.11
2022-09-05T06:04:14.318Z,70.32
2022-09-05T06:07:10.238Z,70.69
2022-09-05T06:14:50.162Z,70.05
2022-09-05T06:15:01.329Z,70.87
2022-09-05T06:16:40.199Z,70.73
2022-09-05T06:19:40.695Z,68.00
2022-09-05T06:23:05.675Z,68.01
2022-09-05T06:25:47.964Z,68.05
2022-09-05T06:28:33.359Z,68.10
2022-09-05T06:31:33.728Z,68.21
2022-09-05T06:34:26.599Z,67.21
2022-09-05T06:37:33.242Z,66.93
2022-09-05T06:40:22.851Z,67.08
2022-09-05T06:43:27.357Z,67.24
2022-09-05T06:46:52.980Z,66.12
2022-09-05T06:49:30.275Z,65.70
2022-09-05T06:52:28.454Z,65.84
2022-09-05T06:55:14.901Z,64.81
2022-09-05T06:58:03.405Z,64.20
2022-09-05T07:00:50.599Z,62.41
2022-09-05T07:03:29.479Z,61.19
2022-09-05T07:06:19.526Z,61.25
2022-09-05T07:09:20.756Z,59.58
2022-09-05T07:12:12.279Z,59.22
2022-09-05T07:15:14.324Z,59.63
2022-09-05T07:18:10.595Z,58.54
2022-09-05T07:21:17.720Z,59.47
2022-09-05T07:24:10.088Z,58.83
2022-09-05T07:26:53.820Z,59.27
2022-09-05T07:29:28.193Z,58.82
2022-09-05T07:31:57.675Z,58.36
2022-09-05T07:34:30.673Z,57.57
2022-09-05T07:37:14.521Z,56.24
2022-09-05T07:40:06.697Z,56.85
2022-09-05T07:43:09.148Z,56.97
2022-09-05T07:45:47.708Z,56.38
2022-09-05T07:48:34.350Z,55.93
2022-09-05T07:56:53.304Z,55.51
2022-09-05T07:56:55.662Z,55.97
2022-09-05T07:57:20.810Z,54.68
2022-09-05T07:59:37.873Z,56.07
2022-09-05T08:02:08.228Z,54.99
2022-09-05T08:04:37.975Z,55.01
2022-09-05T08:07:47.626Z,53.92
2022-09-05T08:10:20.768Z,54.20
2022-09-05T08:13:23.451Z,53.36
2022-09-05T08:16:04.318Z,53.13
2022-09-05T08:18:44.251Z,52.95
2022-09-05T08:21:16.814Z,53.57
2022-09-05T08:24:13.879Z,54.67
2022-09-05T08:27:04.869Z,54.39
2022-09-05T08:29:44.026Z,54.20
2022-09-05T08:32:14.432Z,54.09
2022-09-05T08:34:50.828Z,54.16
2022-09-05T08:37:23.221Z,53.79
2022-09-05T08:40:10.986Z,51.73
2022-09-05T08:46:37.332Z,50.97
2022-09-05T08:46:45.032Z,52.24
2022-09-05T08:49:12.289Z,51.88
2022-09-05T08:51:54.198Z,51.91
2022-09-05T08:54:46.369Z,51.01
2022-09-05T08:57:21.330Z,49.42
2022-09-05T09:00:06.348Z,50.67
2022-09-05T09:03:04.284Z,50.61
2022-09-05T09:06:12.517Z,50.45
2022-09-05T09:09:05.406Z,48.31
2022-09-05T09:12:01.854Z,48.66
2022-09-05T09:14:31.723Z,47.28
2022-09-05T09:17:13.907Z,47.70
2022-09-05T09:20:11.331Z,46.94
2022-09-05T09:22:56.650Z,46.95
2022-09-05T09:25:34.062Z,47.05
2022-09-05T09:28:49.424Z,46.20
2022-09-05T09:31:36.202Z,45.43
2022-09-05T09:34:24.331Z,45.60
2022-09-05T09:37:51.019Z,45.46
2022-09-05T09:40:56.827Z,45.53
2022-09-05T09:43:40.360Z,45.07
2022-09-05T09:46:42.862Z,43.03
2022-09-05T09:49:31.327Z,44.92
2022-09-05T09:52:30.043Z,43.54
2022-09-05T09:55:05.906Z,42.01
2022-09-05T09:57:38.658Z,42.84
2022-09-05T10:00:14.033Z,43.38
2022-09-05T10:09:07.912Z,42.75
2022-09-05T10:10:45.320Z,42.51
2022-09-05T10:10:47.753Z,41.28
2022-09-05T10:12:19.535Z,41.38
2022-09-05T10:15:00.309Z,40.48
2022-09-05T10:17:49.700Z,40.15
2022-09-05T10:20:49.662Z,40.43
2022-09-05T10:24:01.327Z,40.13
2022-09-05T10:26:36.982Z,40.68
2022-09-05T10:29:33.260Z,40.84
2022-09-05T10:35:07.861Z,40.49
2022-09-05T10:35:19.948Z,40.88
2022-09-05T10:37:54.430Z,40.94
2022-09-05T10:40:24.537Z,40.15
2022-09-05T10:43:00.478Z,40.25
2022-09-05T10:45:43.002Z,39.94
2022-09-05T10:48:39.070Z,40.19
2022-09-05T10:51:26.939Z,38.56
2022-09-05T10:54:25.310Z,40.33
2022-09-05T10:57:23.299Z,38.71
2022-09-05T11:02:19.844Z,39.06
2022-09-05T11:03:22.785Z,39.09
2022-09-05T11:05:58.627Z,39.87
2022-09-05T11:09:00.332Z,39.62
2022-09-05T11:11:34.695Z,39.36
2022-09-05T11:14:26.599Z,38.11
2022-09-05T11:17:01.930Z,38.64
2022-09-05T11:19:45.592Z,39.18
2022-09-05T11:22:23.512Z,39.68
2022-09-05T11:24:58.439Z,38.46
2022-09-05T11:28:04.034Z,38.82
2022-09-05T11:30:38.898Z,39.97
2022-09-05T11:39:46.917Z,38.44
2022-09-05T11:40:05.888Z,38.19
2022-09-05T11:40:06.173Z,39.49
2022-09-05T11:42:18.029Z,39.38
2022-09-05T11:45:18.389Z,40.33
2022-09-05T11:47:54.279Z,38.43
2022-09-05T11:50:51.073Z,38.30
2022-09-05T11:53:55.089Z,38.46
2022-09-05T11:57:31.909Z,37.97
2022-09-05T12:00:31.250Z,36.83
2022-09-05T12:03:57.421Z,36.62
2022-09-05T12:06:22.456Z,36.81
2022-09-05T12:09:26.348Z,36.69
2022-09-05T12:12:02.044Z,35.49
2022-09-05T12:14:44.142Z,35.98
2022-09-05T12:17:35.571Z,35.90
2022-09-05T12:20:22.902Z,36.72
2022-09-05T12:22:57.888Z,37.16
2022-09-05T12:27:39.964Z,36.31
2022-09-05T12:29:34.040Z,35.07
2022-09-05T12:33:24.263Z,35.58
2022-09-05T12:36:10.518Z,34.64
2022-09-05T12:40:38.228Z,34.06
2022-09-05T12:41:44.856Z,35.51
2022-09-05T12:44:41.591Z,35.12
2022-09-05T12:47:18.905Z,34.49
2022-09-05T12:49:52.514Z,36.00
2022-09-05T12:52:39.117Z,35.04
2022-09-05T12:55:17.445Z,33.76
2022-09-05T13:02:55.479Z,34.48
2022-09-05T13:03:03.809Z,34.31
2022-09-05T13:03:33.578Z,35.86
2022-09-05T13:06:24.634Z,34.79
2022-09-05T13:09:00.420Z,33.99
2022-09-05T13:14:49.744Z,34.19
2022-09-05T13:14:54.646Z,33.22
2022-09-05T13:17:16.034Z,33.90
2022-09-05T13:19:44.926Z,33.95
2022-09-05T13:22:15.296Z,33.82
2022-09-05T13:24:46.680Z,33.52
2022-09-05T13:27:24.778Z,32.15
2022-09-05T13:31:12.351Z,33.01
2022-09-05T13:38:06.155Z,34.53
2022-09-05T13:38:30.692Z,31.85
2022-09-05T13:38:47.638Z,32.29
2022-09-05T13:41:27.313Z,33.05
2022-09-05T13:44:00.464Z,33.48
2022-09-05T13:46:58.870Z,33.04
2022-09-05T13:49:42.903Z,34.71
2022-09-05T13:52:28.074Z,33.57
2022-09-05T13:55:38.413Z,33.71
2022-09-05T13:58:15.795Z,35.04
2022-09-05T14:01:24.012Z,33.56
2022-09-05T14:07:44.515Z,34.20
2022-09-05T14:10:30.867Z,34.07
2022-09-05T14:13:02.679Z,34.43
2022-09-05T14:15:56.422Z,35.50
2022-09-05T14:18:26.432Z,33.70
2022-09-05T14:21:12.106Z,32.74
2022-09-05T14:23:54.174Z,32.23
2022-09-05T14:26:29.005Z,33.39
2022-09-05T14:29:22.874Z,33.46
2022-09-05T14:37:41.385Z,32.96
2022-09-05T14:37:48.385Z,32.63
2022-09-05T14:38:04.189Z,31.52
2022-09-05T14:40:54.629Z,32.08
2022-09-05T14:43:27.576Z,31.83
2022-09-05T14:46:13.145Z,31.19
2022-09-05T14:48:53.005Z,31.27
2022-09-05T14:51:29.246Z,32.09
2022-09-05T15:02:39.845Z,33.74
2022-09-05T15:02:51.544Z,33.90
2022-09-05T15:03:02.201Z,34.51
2022-09-05T15:05:39.370Z,34.81
2022-09-05T15:09:55.634Z,34.74
2022-09-05T15:12:17.475Z,35.25
2022-09-05T15:14:01.945Z,35.42
2022-09-05T15:16:30.510Z,35.27
2022-09-05T15:18:57.363Z,34.80
2022-09-05T15:21:33.945Z,35.33
2022-09-05T15:24:04.642Z,35.19
2022-09-05T15:26:59.344Z,34.98
2022-09-05T15:29:31.385Z,34.78
2022-09-05T15:32:31.078Z,35.04
2022-09-05T15:34:59.685Z,34.76
2022-09-05T15:37:37.190Z,34.85
2022-09-05T15:40:22.510Z,35.13
2022-09-05T15:42:55.588Z,34.96
2022-09-05T15:45:28.293Z,35.32
2022-09-05T15:48:04.194Z,35.04
2022-09-05T15:50:42.818Z,34.15
2022-09-05T15:53:23.534Z,34.09
2022-09-05T15:55:58.254Z,33.85
2022-09-05T15:58:28.467Z,33.22
2022-09-05T16:01:46.486Z,34.91
2022-09-05T16:09:59.840Z,35.38
2022-09-05T16:10:36.333Z,35.68
2022-09-05T16:10:41.150Z,36.35
2022-09-05T16:12:42.120Z,36.52
2022-09-05T16:16:59.720Z,36.50
2022-09-05T16:23:30.680Z,37.01
2022-09-05T16:23:31.628Z,37.27
2022-09-05T16:24:04.802Z,36.96
2022-09-05T16:26:39.440Z,37.68
2022-09-05T16:29:16.287Z,37.68
2022-09-05T16:31:52.409Z,37.26
2022-09-05T16:34:36.232Z,37.23
2022-09-05T16:37:09.457Z,38.30
2022-09-05T16:39:48.384Z,38.06
2022-09-05T16:42:34.141Z,38.34
2022-09-05T16:45:15.335Z,38.89
2022-09-05T16:48:14.281Z,38.85
2022-09-05T16:50:52.822Z,38.98
2022-09-05T16:53:58.727Z,38.78
2022-09-05T16:56:37.874Z,38.93
2022-09-05T16:59:21.053Z,38.87
2022-09-05T17:02:06.593Z,39.56
2022-09-05T17:05:02.934Z,40.13
2022-09-05T17:07:42.298Z,40.18
2022-09-05T17:10:18.863Z,40.43
2022-09-05T17:12:46.034Z,40.08
2022-09-05T17:15:19.573Z,40.60
2022-09-05T17:18:22.756Z,40.78
2022-09-05T17:20:50.840Z,40.77
2022-09-05T17:29:20.234Z,40.54
2022-09-05T17:29:49.643Z,41.22
2022-09-05T17:32:51.331Z,41.28
2022-09-05T17:35:38.067Z,41.38
2022-09-05T17:38:20.646Z,41.77
2022-09-05T17:40:56.038Z,41.41
2022-09-05T17:43:40.053Z,41.87
2022-09-05T17:46:22.766Z,42.20
2022-09-05T17:49:13.412Z,42.05
2022-09-05T17:51:35.937Z,41.96
2022-09-05T17:54:02.495Z,41.99
2022-09-05T17:56:43.854Z,41.99
2022-09-05T17:59:13.586Z,41.65
2022-09-05T18:01:41.582Z,41.82
2022-09-05T18:04:16.476Z,41.77
2022-09-05T18:06:59.983Z,42.18
2022-09-05T18:09:42.507Z,43.03
2022-09-05T18:13:13.626Z,43.16
2022-09-05T18:21:24.599Z,44.12
2022-09-05T18:24:12.208Z,44.58
2022-09-05T18:26:53.246Z,45.16
2022-09-05T18:33:55.542Z,48.72
2022-09-05T18:35:53.948Z,51.28
2022-09-05T18:38:50.025Z,52.26
2022-09-05T18:41:14.572Z,53.37
2022-09-05T18:44:13.869Z,53.46
2022-09-05T18:46:54.333Z,54.03
2022-09-05T18:50:24.012Z,54.31
2022-09-05T18:52:28.790Z,55.32
2022-09-05T18:56:11.205Z,55.13
2022-09-05T18:58:08.833Z,54.00
2022-09-05T19:00:44.667Z,53.07
2022-09-05T19:03:31.520Z,52.56
2022-09-05T19:06:35.045Z,54.45
2022-09-05T19:08:57.510Z,56.04
2022-09-05T19:11:29.235Z,56.85
2022-09-05T19:14:26.590Z,56.76
2022-09-05T19:16:48.483Z,56.62
2022-09-05T19:19:19.443Z,56.25
2022-09-05T19:22:02.423Z,56.25
2022-09-05T19:24:45.334Z,55.84
2022-09-05T19:27:53.353Z,56.53
2022-09-05T19:36:50.206Z,56.55
2022-09-05T19:36:59.597Z,56.64
2022-09-05T19:37:10.141Z,57.17
2022-09-05T19:38:25.940Z,57.26
2022-09-05T19:47:25.795Z,57.07
2022-09-05T19:47:42.240Z,57.29
2022-09-05T19:47:45.141Z,57.79
2022-09-05T19:49:56.210Z,57.46
2022-09-05T19:52:22.831Z,57.89
2022-09-05T19:54:53.003Z,58.08
2022-09-05T19:57:20.921Z,58.15
2022-09-05T19:59:53.527Z,57.92
2022-09-05T20:02:29.268Z,58.27
2022-09-05T20:04:58.548Z,58.22
2022-09-05T20:07:29.906Z,57.65
2022-09-05T20:09:58.548Z,57.35
2022-09-05T20:12:29.931Z,57.17
2022-09-05T20:14:56.698Z,57.66
2022-09-05T20:17:27.863Z,58.29
2022-09-05T20:20:15.639Z,58.42
2022-09-05T20:22:50.583Z,59.31
2022-09-05T20:25:35.338Z,59.65
2022-09-05T20:28:10.316Z,59.88
2022-09-05T20:30:42.014Z,61.14
2022-09-05T20:33:32.846Z,61.97
2022-09-05T20:41:57.511Z,62.79
2022-09-05T20:43:22.466Z,63.41
2022-09-05T20:43:24.420Z,64.19
2022-09-05T20:44:36.453Z,64.08
2022-09-05T20:51:33.169Z,64.62
2022-09-05T20:54:09.987Z,64.08
2022-09-05T20:54:26.432Z,64.82
2022-09-05T20:55:43.921Z,64.96
2022-09-05T20:58:24.722Z,64.49
2022-09-05T21:01:21.631Z,64.59
2022-09-05T21:03:58.130Z,64.22
2022-09-05T21:06:33.340Z,63.66
2022-09-05T21:09:24.866Z,62.76
2022-09-05T21:11:56.758Z,62.52
2022-09-05T21:14:26.567Z,61.34
2022-09-05T21:17:04.942Z,61.34
2022-09-05T21:19:52.068Z,60.89
2022-09-05T21:22:21.036Z,61.50
2022-09-05T21:24:48.509Z,61.02
2022-09-05T21:27:25.526Z,62.24
2022-09-05T21:29:59.227Z,63.45
2022-09-05T21:32:38.121Z,62.77
2022-09-05T21:35:33.732Z,62.52
2022-09-05T21:37:56.170Z,63.76
2022-09-05T21:40:22.843Z,63.74
2022-09-05T21:46:00.551Z,63.00
2022-09-05T21:47:39.457Z,63.00
2022-09-05T21:48:23.847Z,63.86
2022-09-05T21:50:53.555Z,63.42
2022-09-05T21:58:43.407Z,63.02
2022-09-05T21:59:21.634Z,63.27
2022-09-05T21:59:24.478Z,63.59
2022-09-05T22:01:55.450Z,63.00
2022-09-05T22:04:22.346Z,62.41
2022-09-05T22:06:50.022Z,62.39
2022-09-05T22:09:18.067Z,62.12
2022-09-05T22:11:45.131Z,63.22
2022-09-05T22:14:11.725Z,63.17
2022-09-05T22:16:44.772Z,63.05
2022-09-05T22:19:15.362Z,63.06
2022-09-05T22:21:42.162Z,62.74
2022-09-05T22:24:11.550Z,62.20
2022-09-05T22:27:01.275Z,62.19
2022-09-05T22:29:28.886Z,61.80
2022-09-05T22:31:55.692Z,60.99
2022-09-05T22:34:22.383Z,61.70
2022-09-05T22:36:49.091Z,61.32
2022-09-05T22:39:19.359Z,61.15
2022-09-05T22:42:02.624Z,60.98
2022-09-05T22:47:28.247Z,63.06
2022-09-05T22:49:54.922Z,63.94
2022-09-05T22:52:21.642Z,63.70
2022-09-05T22:54:48.292Z,64.41
2022-09-05T22:57:14.978Z,64.35
2022-09-05T22:59:41.588Z,65.22
2022-09-05T23:02:08.347Z,66.34
2022-09-05T23:04:34.973Z,65.98
2022-09-05T23:07:03.291Z,66.04
2022-09-05T23:09:30.073Z,67.36
2022-09-05T23:11:56.753Z,67.31
2022-09-05T23:14:23.393Z,67.07
2022-09-05T23:16:50.107Z,66.96
2022-09-05T23:19:16.688Z,66.77
2022-09-05T23:21:43.327Z,66.64
2022-09-05T23:24:13.049Z,66.33
2022-09-05T23:26:39.678Z,65.94
2022-09-05T23:29:06.243Z,66.22
2022-09-05T23:31:32.998Z,66.80
2022-09-05T23:33:59.596Z,66.51
2022-09-05T23:36:26.208Z,66.34
2022-09-05T23:38:52.801Z,66.57
2022-09-05T23:41:19.448Z,66.35
2022-09-05T23:43:46.021Z,66.44
2022-09-05T23:46:13.107Z,65.86
2022-09-05T23:48:39.898Z,65.95
2022-09-05T23:51:08.864Z,66.32
2022-09-05T23:53:35.930Z,66.64
2022-09-05T23:56:04.776Z,66.94
2022-09-05T23:58:31.739Z,67.00
